createdAt,value
2023-04-05T00:01:07.812Z,101023.94
2023-04-05T00:04:09.772Z,101022.38
2023-04-05T00:10:34.900Z,101019.50
2023-04-05T00:13:37.075Z,101022.50
2023-04-05T00:16:40.245Z,101015.91
2023-04-05T00:19:43.436Z,101016.28
2023-04-05T00:22:46.644Z,101016.63
2023-04-05T00:25:48.671Z,101011.50
2023-04-05T00:28:54.263Z,101013.63
2023-04-05T00:31:57.577Z,101012.78
2023-04-05T00:34:59.486Z,101010.91
2023-04-05T00:38:01.848Z,101005.75
2023-04-05T00:41:03.687Z,101004.75
2023-04-05T00:44:08.397Z,101006.34
2023-04-05T00:47:11.808Z,101000.63
2023-04-05T00:50:18.332Z,101004.97
2023-04-05T00:53:20.920Z,101000.56
2023-04-05T00:56:24.485Z,100992.94
2023-04-05T00:59:26.417Z,100987.63
2023-04-05T01:02:33.796Z,100987.88
2023-04-05T01:05:45.973Z,100988.31
2023-04-05T01:08:55.856Z,100985.56
2023-04-05T01:12:06.780Z,100989.69
2023-04-05T01:15:12.483Z,100986.13
2023-04-05T01:18:15.698Z,100976.88
2023-04-05T01:21:59.332Z,100981.75
2023-04-05T01:25:28.538Z,100973.72
2023-04-05T01:28:53.192Z,100972.38
2023-04-05T01:32:01.556Z,100973.72
2023-04-05T01:35:12.273Z,100972.31
2023-04-05T01:38:18.912Z,100968.69
2023-04-05T01:41:22.588Z,100965.00
2023-04-05T01:44:24.671Z,100964.75
2023-04-05T01:47:28.096Z,100957.97
2023-04-05T01:50:30.204Z,100954.97
2023-04-05T01:53:34.207Z,100956.75
2023-04-05T01:56:36.250Z,100954.88
2023-04-05T01:59:41.435Z,100951.78
2023-04-05T02:02:46.594Z,100945.78
2023-04-05T02:05:48.406Z,100954.59
2023-04-05T02:08:50.416Z,100947.13
2023-04-05T02:11:52.243Z,100944.66
2023-04-05T02:14:54.098Z,100950.81
2023-04-05T02:17:57.437Z,100954.31
2023-04-05T02:21:02.806Z,100951.59
2023-04-05T02:24:05.791Z,100959.25
2023-04-05T02:27:07.860Z,100953.34
2023-04-05T02:30:10.504Z,100955.97
2023-04-05T02:33:13.925Z,100949.16
2023-04-05T02:36:17.391Z,100952.31
2023-04-05T02:39:20.700Z,100956.38
2023-04-05T02:42:23.765Z,100951.38
2023-04-05T02:45:28.142Z,100949.72
2023-04-05T02:48:33.926Z,100943.63
2023-04-05T02:51:37.460Z,100955.44
2023-04-05T02:54:44.816Z,100946.47
2023-04-05T02:57:49.925Z,100952.94
2023-04-05T03:01:06.927Z,100951.28
2023-04-05T03:04:14.005Z,100950.59
2023-04-05T03:07:19.933Z,100946.41
2023-04-05T03:10:29.059Z,100944.34
2023-04-05T03:13:41.297Z,100940.81
2023-04-05T03:16:50.544Z,100939.53
2023-04-05T03:20:14.354Z,100943.09
2023-04-05T03:23:16.872Z,100951.28
2023-04-05T03:26:22.143Z,100937.28
2023-04-05T03:29:27.496Z,100930.56
2023-04-05T03:33:16.278Z,100941.34
2023-04-05T03:36:22.834Z,100938.53
2023-04-05T03:39:28.290Z,100934.25
2023-04-05T03:42:31.951Z,100937.53
2023-04-05T03:45:34.344Z,100929.31
2023-04-05T03:48:36.751Z,100924.66
2023-04-05T03:51:40.668Z,100927.00
2023-04-05T03:54:42.380Z,100919.41
2023-04-05T03:57:45.764Z,100922.41
2023-04-05T04:01:09.924Z,100922.13
2023-04-05T04:04:13.731Z,100920.09
2023-04-05T04:07:20.700Z,100927.03
2023-04-05T04:10:22.496Z,100921.38
2023-04-05T04:13:27.852Z,100924.06
2023-04-05T04:16:48.240Z,100917.03
2023-04-05T04:20:13.126Z,100914.88
2023-04-05T04:23:38.669Z,100915.00
2023-04-05T04:27:17.142Z,100907.97
2023-04-05T04:30:35.323Z,100906.97
2023-04-05T04:33:44.434Z,100896.03
2023-04-05T04:37:04.330Z,100899.66
2023-04-05T04:40:38.935Z,100895.28
2023-04-05T04:44:05.873Z,100905.44
2023-04-05T04:47:34.211Z,100905.00
2023-04-05T04:50:51.955Z,100909.72
2023-04-05T04:53:59.803Z,100907.31
2023-04-05T04:57:04.009Z,100902.50
2023-04-05T05:00:16.107Z,100914.31
2023-04-05T05:03:19.111Z,100910.50
2023-04-05T05:06:22.142Z,100908.97
2023-04-05T05:09:23.924Z,100906.75
2023-04-05T05:12:34.233Z,100910.59
2023-04-05T05:15:36.220Z,100905.88
2023-04-05T05:18:38.113Z,100908.72
2023-04-05T05:21:41.549Z,100915.56
2023-04-05T05:24:44.567Z,100914.03
2023-04-05T05:27:50.916Z,100918.41
2023-04-05T05:30:54.451Z,100918.81
2023-04-05T05:33:56.983Z,100923.59
2023-04-05T05:36:59.064Z,100930.06
2023-04-05T05:40:01.362Z,100923.94
2023-04-05T05:43:05.041Z,100926.78
2023-04-05T05:46:07.063Z,100937.59
2023-04-05T05:49:09.356Z,100932.44
2023-04-05T05:52:11.420Z,100925.69
2023-04-05T05:55:13.144Z,100925.25
2023-04-05T05:58:19.973Z,100930.38
2023-04-05T06:01:28.482Z,100924.03
2023-04-05T06:04:30.353Z,100932.22
2023-04-05T06:07:38.888Z,100935.00
2023-04-05T06:10:41.583Z,100937.84
2023-04-05T06:13:45.780Z,100940.44
2023-04-05T06:16:48.286Z,100934.09
2023-04-05T06:19:51.380Z,100938.31
2023-04-05T06:22:54.457Z,100939.91
2023-04-05T06:26:03.732Z,100936.38
2023-04-05T06:29:08.436Z,100943.63
2023-04-05T06:32:10.562Z,100941.44
2023-04-05T06:35:14.940Z,100940.03
2023-04-05T06:38:19.347Z,100937.03
2023-04-05T06:41:21.838Z,100931.59
2023-04-05T06:44:24.962Z,100930.38
2023-04-05T06:47:27.253Z,100928.69
2023-04-05T06:50:29.071Z,100930.16
2023-04-05T06:53:31.356Z,100934.03
2023-04-05T06:56:33.389Z,100928.78
2023-04-05T06:59:37.278Z,100929.47
2023-04-05T07:02:41.055Z,100923.06
2023-04-05T07:05:54.365Z,100941.44
2023-04-05T07:08:56.788Z,100933.38
2023-04-05T07:11:58.882Z,100941.00
2023-04-05T07:15:03.477Z,100930.16
2023-04-05T07:18:07.186Z,100936.53
2023-04-05T07:21:12.792Z,100935.56
2023-04-05T07:24:14.544Z,100928.78
2023-04-05T07:27:16.479Z,100921.91
2023-04-05T07:30:20.703Z,100924.13
2023-04-05T07:33:24.384Z,100923.81
2023-04-05T07:36:27.273Z,100927.03
2023-04-05T07:39:34.034Z,100920.47
2023-04-05T07:42:36.026Z,100924.38
2023-04-05T07:45:39.325Z,100919.88
2023-04-05T07:48:41.088Z,100921.38
2023-04-05T07:51:43.439Z,100919.41
2023-04-05T07:54:46.122Z,100921.31
2023-04-05T07:57:48.254Z,100925.63
2023-04-05T08:00:59.656Z,100921.50
2023-04-05T08:04:03.545Z,100920.13
2023-04-05T08:07:05.570Z,100922.78
2023-04-05T08:13:29.514Z,100923.44
2023-04-05T08:16:38.549Z,100924.97
2023-04-05T08:19:41.102Z,100924.63
2023-04-05T08:22:43.620Z,100924.94
2023-04-05T08:25:46.021Z,100918.44
2023-04-05T08:28:48.211Z,100912.16
2023-04-05T08:31:51.781Z,100914.75
2023-04-05T08:34:53.454Z,100918.09
2023-04-05T08:37:55.226Z,100918.53
2023-04-05T08:41:06.824Z,100908.72
2023-04-05T08:44:11.041Z,100902.22
2023-04-05T08:47:19.118Z,100903.56
2023-04-05T08:50:22.169Z,100909.28
2023-04-05T08:53:24.019Z,100907.63
2023-04-05T08:56:28.346Z,100903.00
2023-04-05T08:59:50.738Z,100901.34
2023-04-05T09:02:56.912Z,100902.63
2023-04-05T09:05:59.746Z,100901.94
2023-04-05T09:09:05.780Z,100904.69
2023-04-05T09:12:08.866Z,100898.75
2023-04-05T09:15:11.850Z,100902.69
2023-04-05T09:18:25.648Z,100905.09
2023-04-05T09:21:29.777Z,100904.34
2023-04-05T09:24:35.054Z,100895.78
2023-04-05T09:27:55.589Z,100898.53
2023-04-05T09:30:57.653Z,100899.25
2023-04-05T09:34:03.250Z,100894.00
2023-04-05T09:37:14.324Z,100896.66
2023-04-05T09:40:19.386Z,100885.75
2023-04-05T09:43:38.673Z,100887.88
2023-04-05T09:46:41.833Z,100884.47
2023-04-05T09:49:45.999Z,100882.97
2023-04-05T09:52:49.210Z,100888.94
2023-04-05T09:55:51.443Z,100880.31
2023-04-05T09:58:53.656Z,100877.28
2023-04-05T10:01:55.825Z,100878.06
2023-04-05T10:05:06.543Z,100876.56
2023-04-05T10:08:08.715Z,100882.91
2023-04-05T10:11:11.324Z,100883.00
2023-04-05T10:14:13.330Z,100883.31
2023-04-05T10:17:21.182Z,100881.66
2023-04-05T10:20:27.949Z,100880.84
2023-04-05T10:23:33.067Z,100877.66
2023-04-05T10:26:43.894Z,100881.00
2023-04-05T10:29:52.279Z,100878.38
2023-04-05T10:33:04.443Z,100871.16
2023-04-05T10:36:18.414Z,100870.13
2023-04-05T10:39:26.244Z,100870.31
2023-04-05T10:42:34.929Z,100859.94
2023-04-05T10:45:38.793Z,100857.03
2023-04-05T10:48:48.386Z,100850.41
2023-04-05T10:51:52.281Z,100861.41
2023-04-05T10:54:57.892Z,100853.09
2023-04-05T10:58:00.467Z,100858.81
2023-04-05T11:01:04.356Z,100847.44
2023-04-05T11:04:11.940Z,100843.84
2023-04-05T11:07:17.102Z,100843.38
2023-04-05T11:10:19.425Z,100842.16
2023-04-05T11:13:21.758Z,100841.81
2023-04-05T11:16:37.973Z,100834.59
2023-04-05T11:19:52.334Z,100826.44
2023-04-05T11:22:55.621Z,100827.00
2023-04-05T11:26:05.034Z,100822.03
2023-04-05T11:29:07.305Z,100828.50
2023-04-05T11:32:12.630Z,100823.94
2023-04-05T11:35:17.691Z,100829.31
2023-04-05T11:38:23.220Z,100829.63
2023-04-05T11:41:33.174Z,100819.47
2023-04-05T11:44:43.733Z,100820.50
2023-04-05T11:47:45.741Z,100818.09
2023-04-05T11:50:50.790Z,100808.66
2023-04-05T11:53:53.951Z,100804.38
2023-04-05T11:56:56.049Z,100807.50
2023-04-05T11:59:58.049Z,100804.72
2023-04-05T12:03:00.464Z,100802.59
2023-04-05T12:06:04.677Z,100803.53
2023-04-05T12:09:16.529Z,100798.69
2023-04-05T12:12:18.422Z,100797.41
2023-04-05T12:15:21.503Z,100796.25
2023-04-05T12:18:25.732Z,100797.47
2023-04-05T12:21:28.266Z,100780.19
2023-04-05T12:24:32.226Z,100779.19
2023-04-05T12:27:34.097Z,100782.94
2023-04-05T12:30:38.976Z,100771.00
2023-04-05T12:33:43.208Z,100778.09
2023-04-05T12:36:50.858Z,100778.31
2023-04-05T12:39:56.979Z,100760.63
2023-04-05T12:43:03.543Z,100761.66
2023-04-05T12:46:09.567Z,100768.94
2023-04-05T12:49:15.296Z,100759.53
2023-04-05T12:52:20.887Z,100756.91
2023-04-05T12:55:24.909Z,100752.22
2023-04-05T12:58:35.951Z,100757.22
2023-04-05T13:01:41.974Z,100748.09
2023-04-05T13:04:47.794Z,100746.38
2023-04-05T13:07:51.409Z,100735.13
2023-04-05T13:10:56.475Z,100740.53
2023-04-05T13:14:01.559Z,100733.06
2023-04-05T13:17:03.374Z,100730.59
2023-04-05T13:20:07.394Z,100732.84
2023-04-05T13:23:13.820Z,100727.63
2023-04-05T13:26:17.318Z,100718.50
2023-04-05T13:29:19.217Z,100709.66
2023-04-05T13:32:21.007Z,100708.03
2023-04-05T13:35:22.843Z,100714.78
2023-04-05T13:38:24.605Z,100713.06
2023-04-05T13:41:28.645Z,100709.28
2023-04-05T13:44:30.415Z,100713.22
2023-04-05T13:47:32.084Z,100710.88
2023-04-05T13:50:34.851Z,100706.03
2023-04-05T13:53:36.707Z,100697.72
2023-04-05T13:56:42.511Z,100702.34
2023-04-05T13:59:44.243Z,100689.00
2023-04-05T14:02:46.501Z,100688.88
2023-04-05T14:05:50.701Z,100687.13
2023-04-05T14:08:56.977Z,100690.69
2023-04-05T14:12:04.269Z,100687.53
2023-04-05T14:15:07.424Z,100676.66
2023-04-05T14:18:09.489Z,100671.53
2023-04-05T14:21:12.631Z,100683.66
2023-04-05T14:24:14.649Z,100681.81
2023-04-05T14:27:18.071Z,100674.94
2023-04-05T14:30:20.819Z,100671.91
2023-04-05T14:33:24.916Z,100671.78
2023-04-05T14:36:29.608Z,100670.34
2023-04-05T14:39:33.220Z,100676.03
2023-04-05T14:42:47.577Z,100677.03
2023-04-05T14:45:54.374Z,100669.78
2023-04-05T14:48:56.729Z,100669.91
2023-04-05T14:51:58.985Z,100669.75
2023-04-05T14:55:00.969Z,100665.50
2023-04-05T14:58:04.661Z,100659.72
2023-04-05T15:01:10.230Z,100646.63
2023-04-05T15:04:12.395Z,100653.34
2023-04-05T15:07:15.806Z,100644.69
2023-04-05T15:10:20.042Z,100647.97
2023-04-05T15:13:30.247Z,100646.75
2023-04-05T15:16:32.494Z,100652.09
2023-04-05T15:19:36.123Z,100642.19
2023-04-05T15:22:40.868Z,100645.84
2023-04-05T15:25:42.913Z,100639.88
2023-04-05T15:28:47.418Z,100638.84
2023-04-05T15:31:50.867Z,100637.09
2023-04-05T15:34:53.365Z,100638.31
2023-04-05T15:37:55.562Z,100637.53
2023-04-05T15:40:57.877Z,100635.94
2023-04-05T15:44:08.115Z,100637.38
2023-04-05T15:47:11.836Z,100631.94
2023-04-05T15:50:22.181Z,100636.78
2023-04-05T15:53:29.279Z,100629.63
2023-04-05T15:56:37.989Z,100629.69
2023-04-05T15:59:44.544Z,100630.72
2023-04-05T16:02:48.840Z,100625.16
2023-04-05T16:05:51.410Z,100630.91
2023-04-05T16:08:53.249Z,100626.25
2023-04-05T16:11:56.076Z,100630.03
2023-04-05T16:14:59.839Z,100625.16
2023-04-05T16:18:04.091Z,100623.03
2023-04-05T16:21:06.666Z,100620.56
2023-04-05T16:24:08.865Z,100622.16
2023-04-05T16:27:14.775Z,100626.78
2023-04-05T16:30:22.140Z,100626.91
2023-04-05T16:33:24.894Z,100615.38
2023-04-05T16:36:27.857Z,100617.97
2023-04-05T16:39:29.872Z,100619.81
2023-04-05T16:42:31.962Z,100617.84
2023-04-05T16:45:36.842Z,100608.25
2023-04-05T16:48:38.874Z,100608.09
2023-04-05T16:51:41.253Z,100611.94
2023-04-05T16:54:43.798Z,100604.22
2023-04-05T16:57:46.464Z,100612.13
2023-04-05T17:00:51.368Z,100613.34
2023-04-05T17:07:18.354Z,100601.16
2023-04-05T17:10:20.756Z,100604.69
2023-04-05T17:13:22.932Z,100608.38
2023-04-05T17:16:28.987Z,100605.47
2023-04-05T17:19:37.248Z,100604.69
2023-04-05T17:22:39.707Z,100604.66
2023-04-05T17:25:41.892Z,100596.38
2023-04-05T17:28:45.061Z,100597.59
2023-04-05T17:31:49.025Z,100601.88
2023-04-05T17:34:52.017Z,100602.81
2023-04-05T17:37:53.955Z,100607.44
2023-04-05T17:40:57.810Z,100597.88
2023-04-05T17:43:59.919Z,100603.72
2023-04-05T17:47:09.216Z,100612.81
2023-04-05T17:50:12.190Z,100608.88
2023-04-05T17:53:16.283Z,100608.00
2023-04-05T17:56:24.250Z,100601.72
2023-04-05T17:59:26.882Z,100602.84
2023-04-05T18:02:30.435Z,100612.06
2023-04-05T18:05:33.199Z,100606.97
2023-04-05T18:08:35.246Z,100610.53
2023-04-05T18:11:37.364Z,100603.91
2023-04-05T18:14:39.561Z,100612.41
2023-04-05T18:17:45.554Z,100613.44
2023-04-05T18:20:49.492Z,100619.97
2023-04-05T18:23:55.161Z,100626.06
2023-04-05T18:26:57.605Z,100626.31
2023-04-05T18:29:59.615Z,100622.91
2023-04-05T18:33:05.659Z,100629.31
2023-04-05T18:36:08.411Z,100632.91
2023-04-05T18:39:10.486Z,100637.75
2023-04-05T18:42:12.943Z,100631.50
2023-04-05T18:45:15.683Z,100642.69
2023-04-05T18:48:19.569Z,100643.28
2023-04-05T18:51:27.659Z,100646.44
2023-04-05T18:54:29.651Z,100655.03
2023-04-05T18:57:31.863Z,100648.69
2023-04-05T19:00:35.283Z,100651.69
2023-04-05T19:03:39.884Z,100659.72
2023-04-05T19:06:41.937Z,100655.97
2023-04-05T19:09:44.472Z,100655.22
2023-04-05T19:12:47.120Z,100662.66
2023-04-05T19:15:49.395Z,100658.75
2023-04-05T19:18:53.641Z,100663.38
2023-04-05T19:21:57.857Z,100658.34
2023-04-05T19:25:02.014Z,100652.72
2023-04-05T19:28:03.985Z,100656.78
2023-04-05T19:31:06.381Z,100657.75
2023-04-05T19:34:09.963Z,100657.50
2023-04-05T19:37:12.200Z,100656.34
2023-04-05T19:40:14.753Z,100660.78
2023-04-05T19:43:17.445Z,100658.75
2023-04-05T19:46:21.110Z,100655.16
2023-04-05T19:49:38.961Z,100661.06
2023-04-05T19:52:47.879Z,100661.97
2023-04-05T19:55:50.384Z,100656.00
2023-04-05T19:58:58.412Z,100659.25
2023-04-05T20:02:01.368Z,100660.56
2023-04-05T20:05:13.313Z,100661.28
2023-04-05T20:08:15.370Z,100660.19
2023-04-05T20:11:19.193Z,100662.03
2023-04-05T20:14:28.202Z,100662.78
2023-04-05T20:17:30.835Z,100662.44
2023-04-05T20:20:34.721Z,100653.84
2023-04-05T20:23:41.284Z,100665.75
2023-04-05T20:26:45.009Z,100670.66
2023-04-05T20:29:48.039Z,100663.69
2023-04-05T20:32:50.156Z,100660.53
2023-04-05T20:35:53.909Z,100652.47
2023-04-05T20:38:56.071Z,100659.53
2023-04-05T20:41:57.958Z,100645.19
2023-04-05T20:45:00.120Z,100655.91
2023-04-05T20:48:02.885Z,100653.94
2023-04-05T20:51:11.338Z,100652.44
2023-04-05T20:54:15.358Z,100644.13
2023-04-05T20:57:17.523Z,100645.50
2023-04-05T21:00:20.286Z,100642.13
2023-04-05T21:03:25.117Z,100640.81
2023-04-05T21:06:28.436Z,100642.25
2023-04-05T21:09:30.703Z,100644.13
2023-04-05T21:12:32.842Z,100644.13
2023-04-05T21:15:35.637Z,100646.09
2023-04-05T21:18:38.108Z,100645.19
2023-04-05T21:21:41.708Z,100643.28
2023-04-05T21:24:44.845Z,100650.59
2023-04-05T21:27:49.368Z,100644.50
2023-04-05T21:30:51.837Z,100643.53
2023-04-05T21:33:53.906Z,100638.03
2023-04-05T21:36:57.839Z,100640.41
2023-04-05T21:40:02.675Z,100644.31
2023-04-05T21:43:05.354Z,100641.88
2023-04-05T21:46:12.148Z,100643.34
2023-04-05T21:49:14.308Z,100642.22
2023-04-05T21:52:18.428Z,100645.50
2023-04-05T21:55:20.684Z,100643.44
2023-04-05T21:58:23.207Z,100650.00
2023-04-05T22:01:25.859Z,100648.16
2023-04-05T22:04:29.107Z,100641.72
2023-04-05T22:07:35.567Z,100648.00
2023-04-05T22:10:38.098Z,100643.81
2023-04-05T22:13:40.889Z,100643.81
2023-04-05T22:16:43.027Z,100641.56
2023-04-05T22:19:46.730Z,100644.19
2023-04-05T22:22:52.170Z,100638.47
2023-04-05T22:26:00.698Z,100641.41
2023-04-05T22:29:03.873Z,100638.16
2023-04-05T22:32:06.423Z,100641.84
2023-04-05T22:35:09.453Z,100651.47
2023-04-05T22:38:13.072Z,100652.31
2023-04-05T22:41:18.350Z,100654.44
2023-04-05T22:44:22.256Z,100650.75
2023-04-05T22:47:24.263Z,100647.31
2023-04-05T22:50:26.352Z,100648.28
2023-04-05T22:53:30.581Z,100637.34
2023-04-05T22:56:32.952Z,100637.47
2023-04-05T22:59:35.797Z,100648.88
2023-04-05T23:02:40.025Z,100654.59
2023-04-05T23:05:44.803Z,100652.97
2023-04-05T23:08:49.176Z,100649.53
2023-04-05T23:11:51.611Z,100645.91
2023-04-05T23:14:53.949Z,100643.13
2023-04-05T23:17:56.017Z,100642.38
2023-04-05T23:20:58.037Z,100636.56
2023-04-05T23:24:02.574Z,100640.50
2023-04-05T23:27:04.570Z,100640.19
2023-04-05T23:30:09.290Z,100638.88
2023-04-05T23:33:13.037Z,100630.28
2023-04-05T23:36:16.194Z,100632.53
2023-04-05T23:39:19.652Z,100632.22
2023-04-05T23:42:21.992Z,100631.94
2023-04-05T23:45:24.939Z,100635.22
2023-04-05T23:48:27.606Z,100638.97
2023-04-05T23:51:30.854Z,100632.78
2023-04-05T23:54:34.638Z,100623.13
2023-04-05T23:57:36.816Z,100626.84
